Time;durP1;ratioP1;P1;durP2;ratioP2;P2;SDS_P1;SDS_P2;PMS_P1;PMS_P2;Temp;Humidity;BMP_temperature;BMP_pressure;BME280_temperature;BME280_humidity;BME280_pressure;Samples;Min_cycle;Max_cycle;Signal;HPM_P1;HPM_P2
2023/07/20 00:01:02;;;;;;;10.57;6.38;;;;;;;16.46;100.00;101345.47;5051002;28;20128;-80
2023/07/20 00:03:39;;;;;;;11.90;7.80;;;;;;;16.47;100.00;101352.34;5051802;28;20033;-80
2023/07/20 00:06:05;;;;;;;12.90;6.93;;;;;;;16.69;100.00;101385.38;5052690;28;20021;-80
2023/07/20 00:08:40;;;;;;;9.77;6.90;;;;;;;16.32;100.00;101330.09;5052401;28;20483;-80
2023/07/20 00:11:05;;;;;;;9.52;7.13;;;;;;;16.02;100.00;101276.00;5052278;28;20051;-81
2023/07/20 00:13:51;;;;;;;11.88;6.85;;;;;;;16.57;100.00;101365.47;5052325;28;20025;-80
2023/07/20 00:38:38;;;;;;;15.82;8.40;;;;;;;16.41;100.00;101385.88;5161608;23;20053;-81
2023/07/20 00:41:09;;;;;;;12.38;8.23;;;;;;;16.33;100.00;101389.94;5012630;28;20046;-81
2023/07/20 00:43:34;;;;;;;11.15;7.72;;;;;;;16.22;100.00;101376.06;5016247;28;20071;-81
2023/07/20 00:45:59;;;;;;;11.40;8.43;;;;;;;16.16;100.00;101366.97;5016116;28;20031;-81
2023/07/20 00:48:25;;;;;;;12.48;7.90;;;;;;;16.19;100.00;101394.53;5015971;28;20033;-81
2023/07/20 00:50:51;;;;;;;12.95;8.10;;;;;;;16.12;100.00;101391.56;5016474;28;20454;-81
2023/07/20 00:53:19;;;;;;;14.85;8.52;;;;;;;16.04;100.00;101383.53;5016342;28;20037;-81
2023/07/20 00:55:44;;;;;;;13.25;8.30;;;;;;;15.98;100.00;101392.66;4998312;28;20389;-81
2023/07/20 00:58:13;;;;;;;12.07;8.23;;;;;;;15.91;100.00;101393.22;5015972;28;20026;-81
2023/07/20 01:00:38;;;;;;;15.45;8.48;;;;;;;15.35;100.00;101321.06;5015760;28;20177;-81
2023/07/20 01:03:03;;;;;;;13.40;8.88;;;;;;;15.52;100.00;101356.22;4997670;28;20089;-81
2023/07/20 01:06:16;;;;;;;14.15;8.43;;;;;;;15.77;100.00;101396.91;5015587;28;20378;-81
2023/07/20 01:09:24;;;;;;;12.85;8.82;;;;;;;15.72;100.00;101393.78;4917390;29;20039;-81
2023/07/20 01:12:13;;;;;;;12.68;8.95;;;;;;;15.70;100.00;101395.69;4917275;29;20032;-81
2023/07/20 01:14:39;;;;;;;12.15;8.13;;;;;;;15.65;100.00;101396.06;4917516;29;20497;-81
2023/07/20 01:24:09;;;;;;;12.48;9.00;;;;;;;15.77;100.00;101396.91;4917368;29;20152;-81
2023/07/20 01:43:34;;;;;;;17.00;13.13;;;;;;;14.01;100.00;101206.94;4955171;28;20051;-81
2023/07/20 01:46:36;;;;;;;17.45;14.27;;;;;;;15.13;100.00;101405.06;4954867;29;20051;-81
2023/07/20 01:49:31;;;;;;;20.55;14.35;;;;;;;13.72;100.00;101192.59;4938621;29;20063;-80
2023/07/20 01:52:20;;;;;;;19.67;15.18;;;;;;;14.98;100.00;101407.97;4954675;29;20434;-80
2023/07/20 01:54:46;;;;;;;18.73;14.75;;;;;;;14.03;100.00;101256.19;4953532;29;20046;-81
2023/07/20 01:57:11;;;;;;;19.48;15.45;;;;;;;14.00;100.00;101257.22;4954686;29;20028;-80
2023/07/20 01:59:39;;;;;;;17.75;14.65;;;;;;;14.95;100.00;101409.03;4954766;29;20042;-81
2023/07/20 02:02:05;;;;;;;19.00;15.40;;;;;;;14.56;100.00;101355.50;4954232;29;20402;-81
2023/07/20 02:04:30;;;;;;;18.88;16.08;;;;;;;14.88;100.00;101415.59;4954517;29;20031;-80
2023/07/20 02:06:55;;;;;;;20.20;15.73;;;;;;;14.85;100.00;101421.03;4954133;29;20035;-80
2023/07/20 02:09:21;;;;;;;20.30;15.85;;;;;;;14.61;100.00;101382.81;4954353;29;20479;-81
2023/07/20 02:11:46;;;;;;;19.58;16.27;;;;;;;14.74;100.00;101415.72;4953663;29;20047;-80
2023/07/20 02:14:11;;;;;;;18.50;15.52;;;;;;;14.74;100.00;101418.34;4938137;29;20372;-81
2023/07/20 02:16:37;;;;;;;19.65;14.75;;;;;;;14.42;100.00;101379.00;4954066;29;20054;-81
2023/07/20 02:19:03;;;;;;;18.35;15.55;;;;;;;14.69;100.00;101420.44;4954021;29;20058;-80
2023/07/20 02:21:28;;;;;;;20.10;15.52;;;;;;;14.52;100.00;101390.44;5011910;28;20465;-80
2023/07/20 02:23:57;;;;;;;21.27;16.90;;;;;;;14.03;100.00;101300.31;5014404;28;20018;-80
2023/07/20 02:26:25;;;;;;;18.77;16.48;;;;;;;14.15;100.00;101322.81;5014290;28;20025;-80
2023/07/20 02:28:50;;;;;;;19.75;17.13;;;;;;;13.89;100.00;101274.50;5014254;28;20029;-80
2023/07/20 02:31:16;;;;;;;19.98;16.80;;;;;;;14.27;100.00;101321.16;5013976;28;20032;-80
2023/07/20 02:33:41;;;;;;;19.33;16.33;;;;;;;14.97;100.00;101427.94;5014240;28;20069;-80
2023/07/20 02:36:06;;;;;;;19.33;17.17;;;;;;;14.98;100.00;101432.19;4996140;28;20492;-80
2023/07/20 02:38:32;;;;;;;19.20;16.77;;;;;;;14.96;100.00;101430.66;5014102;28;20032;-81
2023/07/20 02:40:57;;;;;;;20.27;16.40;;;;;;;14.73;100.00;101406.28;5013983;28;20037;-80
2023/07/20 02:43:22;;;;;;;20.45;15.75;;;;;;;14.90;100.00;101435.34;5013992;28;20021;-80
2023/07/20 02:45:49;;;;;;;19.73;15.52;;;;;;;14.66;100.00;101400.69;5013890;28;20075;-80
2023/07/20 02:48:15;;;;;;;19.58;15.68;;;;;;;14.43;100.00;101378.06;5014087;28;20026;-80
2023/07/20 02:50:40;;;;;;;18.55;15.18;;;;;;;14.60;100.00;101414.13;4979378;28;20037;-80
2023/07/20 02:53:05;;;;;;;18.58;14.77;;;;;;;14.66;100.00;101444.91;5013719;28;20108;-81
2023/07/20 02:55:31;;;;;;;18.38;14.65;;;;;;;14.37;100.00;101409.69;5014172;28;20113;-80
2023/07/20 02:57:56;;;;;;;18.58;14.95;;;;;;;14.52;100.00;101434.63;5014071;28;20105;-80
2023/07/20 03:00:23;;;;;;;17.05;13.77;;;;;;;14.45;100.00;101457.59;5013853;28;20030;-80
2023/07/20 03:02:49;;;;;;;16.38;13.27;;;;;;;14.32;100.00;101447.19;5013443;28;20031;-80
2023/07/20 03:05:15;;;;;;;15.80;13.52;;;;;;;14.01;100.00;101412.09;5013427;28;20029;-81
2023/07/20 03:07:41;;;;;;;17.45;12.25;;;;;;;14.11;100.00;101440.03;5013546;28;20117;-80
2023/07/20 03:10:09;;;;;;;15.32;12.25;;;;;;;14.24;100.00;101469.44;5013849;28;20433;-80
2023/07/20 03:12:34;;;;;;;14.40;11.00;;;;;;;14.31;100.00;101470.69;5013656;28;20037;-80
2023/07/20 03:14:59;;;;;;;13.52;11.40;;;;;;;14.36;100.00;101471.22;5013468;28;20026;-81
2023/07/20 03:17:27;;;;;;;12.30;10.38;;;;;;;14.30;100.00;101450.84;5013510;28;20026;-80
2023/07/20 03:19:52;;;;;;;11.23;9.95;;;;;;;14.36;100.00;101463.41;5013528;28;20021;-81
2023/07/20 03:22:18;;;;;;;13.88;10.23;;;;;;;14.44;100.00;101463.69;5012983;28;20047;-80
2023/07/20 03:24:43;;;;;;;11.52;9.20;;;;;;;14.44;100.00;101476.69;5013317;28;20049;-80
2023/07/20 03:27:09;;;;;;;11.95;9.75;;;;;;;14.38;100.00;101477.13;5013381;28;20056;-80
2023/07/20 03:29:34;;;;;;;12.63;9.38;;;;;;;14.39;100.00;101485.75;5013331;28;20110;-79
2023/07/20 03:32:02;;;;;;;12.27;9.45;;;;;;;14.26;100.00;101476.19;5013277;28;20457;-80
2023/07/20 03:34:28;;;;;;;11.77;9.63;;;;;;;14.21;100.00;101486.06;5013154;28;20472;-80
2023/07/20 03:36:53;;;;;;;12.68;10.02;;;;;;;13.91;100.00;101444.81;5013168;28;20057;-80
2023/07/20 03:39:19;;;;;;;11.07;9.25;;;;;;;14.03;100.00;101477.75;5012649;28;20096;-80
2023/07/20 03:41:44;;;;;;;11.45;9.60;;;;;;;13.78;100.00;101456.97;5013366;28;20026;-80
2023/07/20 03:44:09;;;;;;;11.75;9.45;;;;;;;13.77;100.00;101470.88;5013171;28;20622;-80
2023/07/20 03:46:35;;;;;;;12.45;9.40;;;;;;;13.80;100.00;101481.03;5013319;28;20034;-81
2023/07/20 03:49:00;;;;;;;10.75;9.38;;;;;;;13.43;100.00;101434.13;5012768;28;20437;-80
2023/07/20 03:51:26;;;;;;;12.18;9.55;;;;;;;13.76;100.00;101492.53;5012803;28;20045;-80
2023/07/20 03:53:51;;;;;;;14.68;12.27;;;;;;;13.63;100.00;101460.56;5013246;28;20030;-80
2023/07/20 03:56:17;;;;;;;16.52;11.98;;;;;;;13.77;100.00;101495.06;5012937;28;20120;-81
2023/07/20 03:58:45;;;;;;;13.80;11.60;;;;;;;13.45;100.00;101437.47;5003742;28;20457;-81
2023/07/20 04:01:10;;;;;;;13.00;11.70;;;;;;;13.73;100.00;101485.78;4993293;28;20121;-80
2023/07/20 04:03:36;;;;;;;16.60;11.80;;;;;;;13.74;100.00;101487.47;4993020;28;20023;-81
2023/07/20 04:06:01;;;;;;;15.60;11.75;;;;;;;13.82;100.00;101496.50;4993079;28;20041;-81
2023/07/20 04:08:27;;;;;;;14.98;12.07;;;;;;;13.84;100.00;101494.63;4992918;28;20459;-81
2023/07/20 04:10:52;;;;;;;14.23;11.38;;;;;;;13.76;100.00;101496.00;4993215;28;20472;-81
2023/07/20 04:13:18;;;;;;;14.82;11.50;;;;;;;13.55;100.00;101455.84;4993139;28;20030;-81
2023/07/20 04:15:43;;;;;;;14.77;11.45;;;;;;;13.84;100.00;101505.03;4993039;28;20033;-80
2023/07/20 04:18:08;;;;;;;13.25;11.65;;;;;;;13.99;100.00;101507.44;4996034;28;20521;-81
2023/07/20 04:20:34;;;;;;;14.15;10.80;;;;;;;14.14;100.00;101507.34;4996718;28;20030;-81
2023/07/20 04:23:00;;;;;;;13.52;11.32;;;;;;;14.25;100.00;101492.69;4996802;28;20038;-79
2023/07/20 04:25:25;;;;;;;16.35;11.55;;;;;;;14.09;100.00;101453.13;4996900;28;20026;-81
2023/07/20 04:34:21;;;;;;;12.40;9.63;;;;;;;13.92;100.00;101422.28;5016574;28;20053;-81
2023/07/20 04:36:46;;;;;;;;;;;;;;;14.50;100.00;101499.69;5016904;28;20033;-81
2023/07/20 04:39:22;;;;;;;10.73;8.68;;;;;;;13.98;100.00;101425.28;5016368;28;19989;-81
2023/07/20 04:42:25;;;;;;;11.10;8.90;;;;;;;14.46;100.00;101503.47;5016041;28;20022;-81
2023/07/20 04:48:31;;;;;;;10.98;8.32;;;;;;;13.20;100.00;101274.03;5016515;28;20381;-81
2023/07/20 04:50:56;;;;;;;10.20;8.23;;;;;;;13.86;100.00;101371.56;5015903;28;20096;-81
2023/07/20 04:53:49;;;;;;;9.25;8.25;;;;;;;14.72;100.00;101500.81;5015764;28;20471;-83
2023/07/20 04:56:39;;;;;;;11.07;8.75;;;;;;;13.98;100.00;101375.97;5016166;28;20026;-81
2023/07/20 04:59:54;;;;;;;11.48;8.90;;;;;;;14.76;100.00;101489.28;4984005;28;20037;-81
2023/07/20 05:02:58;;;;;;;12.43;9.95;;;;;;;14.80;100.00;101508.91;5015968;28;20036;-81
2023/07/20 05:08:45;;;;;;;14.73;12.63;;;;;;;14.95;100.00;101497.44;5015961;28;20037;-81
2023/07/20 05:11:54;;;;;;;15.27;12.50;;;;;;;15.03;100.00;101492.50;5015724;28;20066;-81
2023/07/20 05:14:36;;;;;;;15.02;13.43;;;;;;;14.42;100.00;101298.44;5015668;28;20038;-81
2023/07/20 05:17:48;;;;;;;15.57;12.43;;;;;;;17.31;100.00;101498.72;5015617;28;20117;-80
2023/07/20 05:20:29;;;;;;;11.98;10.45;;;;;;;18.55;98.40;101405.50;5015725;28;20038;-80
2023/07/20 05:46:53;;;;;;;9.95;6.75;;;;;;;23.54;63.19;101479.41;4927421;23;20402;-80
2023/07/20 05:53:41;;;;;;;9.13;7.53;;;;;;;22.69;66.24;101395.31;4923002;28;20040;-80
2023/07/20 05:59:45;;;;;;;9.95;7.65;;;;;;;22.00;67.66;101436.63;5246747;23;20068;-81
2023/07/20 06:05:26;;;;;;;10.63;8.20;;;;;;;22.56;67.57;101495.00;4997622;23;20113;-79
2023/07/20 06:10:51;;;;;;;8.88;7.40;;;;;;;24.52;61.74;101428.06;4995139;28;20088;-83
2023/07/20 06:13:17;;;;;;;8.98;7.07;;;;;;;24.83;57.92;101448.34;4995157;28;20030;-83
2023/07/20 06:15:47;;;;;;;8.00;6.68;;;;;;;24.73;56.14;101381.72;4961006;28;20057;-82
2023/07/20 06:18:46;;;;;;;4.60;3.60;;;;;;;25.99;57.42;101543.34;4994887;28;20042;-82
2023/07/20 06:21:17;;;;;;;5.10;3.30;;;;;;;25.38;55.75;101545.97;4975342;28;20097;-81
2023/07/20 06:23:46;;;;;;;6.18;4.32;;;;;;;25.00;55.56;101545.03;4957549;28;20043;-80
2023/07/20 06:28:37;;;;;;;3.45;2.85;;;;;;;25.61;53.62;101495.69;5180409;23;20161;-81
2023/07/20 06:34:00;;;;;;;4.75;3.28;;;;;;;24.04;53.82;101389.47;5014509;28;20496;-81
2023/07/20 06:36:29;;;;;;;6.72;4.85;;;;;;;23.35;57.70;101480.53;5029373;28;20026;-82
2023/07/20 06:39:14;;;;;;;6.72;3.25;;;;;;;22.12;61.66;101387.25;5013841;28;20033;-78
2023/07/20 06:41:45;;;;;;;6.88;4.22;;;;;;;22.70;62.43;101540.94;5014100;28;20108;-82
2023/07/20 06:44:11;;;;;;;6.20;4.82;;;;;;;22.49;62.27;101442.16;5014198;28;20025;-82
2023/07/20 06:46:37;;;;;;;5.35;3.45;;;;;;;23.87;58.94;101540.88;5013859;28;20033;-81
2023/07/20 06:49:20;;;;;;;5.60;3.63;;;;;;;24.50;57.50;101487.31;5011690;28;20038;-82
2023/07/20 06:51:51;;;;;;;5.38;3.50;;;;;;;25.93;54.65;101536.94;4995146;28;20034;-83
2023/07/20 06:54:16;;;;;;;5.95;3.90;;;;;;;27.08;50.27;101542.59;5011838;28;20410;-84
2023/07/20 06:56:42;;;;;;;5.32;3.42;;;;;;;26.32;49.12;101422.00;5011762;28;20029;-85
2023/07/20 06:59:10;;;;;;;4.68;2.83;;;;;;;26.70;49.06;101541.91;5011712;28;20042;-84
2023/07/20 07:01:36;;;;;;;4.45;2.28;;;;;;;25.44;51.42;101478.31;5011601;28;20172;-83
2023/07/20 07:04:01;;;;;;;4.50;3.40;;;;;;;24.62;53.65;101522.91;5011558;28;20116;-83
2023/07/20 07:06:30;;;;;;;6.18;2.92;;;;;;;23.61;56.72;101507.63;5011471;28;20504;-83
2023/07/20 07:08:55;;;;;;;5.30;3.50;;;;;;;22.91;60.06;101504.53;5011356;28;20046;-84
2023/07/20 07:11:26;;;;;;;4.35;3.15;;;;;;;21.88;61.39;101432.63;5011329;28;20100;-86
2023/07/20 07:14:06;;;;;;;5.55;3.22;;;;;;;21.69;62.89;101448.59;5011260;28;20038;-86
2023/07/20 07:16:47;;;;;;;7.67;3.20;;;;;;;21.11;64.00;101376.38;5011623;28;20386;-83
2023/07/20 07:19:28;;;;;;;5.45;2.83;;;;;;;21.47;64.79;101461.28;5010468;28;20033;-82
2023/07/20 07:21:53;;;;;;;5.53;3.40;;;;;;;22.22;64.09;101563.38;5013485;28;20551;-82
2023/07/20 07:24:19;;;;;;;5.53;2.95;;;;;;;22.15;61.18;101423.78;5013348;28;20058;-81
2023/07/20 07:26:46;;;;;;;7.88;2.95;;;;;;;22.82;61.19;101516.00;5012815;28;20027;-80
2023/07/20 07:29:14;;;;;;;4.43;3.10;;;;;;;22.72;62.27;101557.44;5025192;28;20047;-82
2023/07/20 07:31:40;;;;;;;4.35;2.85;;;;;;;22.82;62.88;101552.88;4992318;28;20045;-79
2023/07/20 07:34:05;;;;;;;6.40;3.13;;;;;;;24.28;58.92;101554.81;5002507;28;20037;-81
2023/07/20 07:36:47;;;;;;;3.80;2.88;;;;;;;25.85;52.79;101552.88;5014087;28;20029;-85
2023/07/20 07:39:12;;;;;;;4.50;2.65;;;;;;;26.36;48.67;101462.22;5011941;28;20065;-85
2023/07/20 07:41:38;;;;;;;3.60;1.52;;;;;;;25.77;46.11;101451.63;5012647;28;20057;-83
2023/07/20 07:44:08;;;;;;;1.73;1.10;;;;;;;24.30;48.25;101399.78;5013196;28;20038;-85
2023/07/20 07:46:41;;;;;;;1.85;1.10;;;;;;;24.57;52.48;101567.47;5008574;23;20537;-84
2023/07/20 07:49:22;;;;;;;2.05;0.90;;;;;;;23.84;52.08;101506.94;4993211;28;20050;-82
2023/07/20 07:51:50;;;;;;;2.03;0.80;;;;;;;23.47;52.81;101500.31;4975301;28;20470;-85
2023/07/20 07:54:31;;;;;;;3.70;1.20;;;;;;;23.61;53.86;101512.06;4993252;28;20036;-85
2023/07/20 07:57:03;;;;;;;1.58;1.20;;;;;;;23.10;56.07;101466.50;4992980;28;20475;-83
2023/07/20 08:00:18;;;;;;;2.42;1.77;;;;;;;23.63;55.34;101568.91;4993403;28;20026;-79
2023/07/20 08:10:01;;;;;;;3.25;1.50;;;;;;;21.37;60.09;101430.81;4911946;29;20396;-84
2023/07/20 08:16:03;;;;;;;;;;;;;;;21.98;61.67;101587.69;4933840;29;20543;-88
2023/07/20 08:18:34;;;;;;;3.22;1.83;;;;;;;20.68;62.71;101420.94;4933438;29;20294;-84
2023/07/20 08:21:08;;;;;;;4.35;2.25;;;;;;;21.11;62.31;101518.19;4933498;29;20130;-80
2023/07/20 08:23:34;;;;;;;2.50;1.42;;;;;;;21.45;62.36;101589.34;4933469;29;20171;-87
2023/07/20 08:28:55;;;;;;;3.08;1.30;;;;;;;21.27;62.08;101587.69;4933066;29;20040;-85
2023/07/20 09:14:16;;;;;;;1.52;1.05;;;;;;;22.87;58.25;101577.75;5015982;28;20048;-80
2023/07/20 09:17:05;;;;;;;2.92;1.02;;;;;;;22.94;57.79;101577.94;5015447;28;20030;-80
2023/07/20 09:19:31;;;;;;;1.95;0.85;;;;;;;22.55;53.78;101517.03;5015508;28;20029;-80
2023/07/20 09:21:56;;;;;;;2.92;0.90;;;;;;;22.32;55.11;101451.81;5015578;28;20148;-80
2023/07/20 09:24:28;;;;;;;1.50;1.00;;;;;;;23.03;54.74;101565.63;5015599;28;20026;-82
2023/07/20 09:27:19;;;;;;;2.13;1.08;;;;;;;23.15;56.08;101577.53;5015439;28;20482;-76
2023/07/20 09:30:24;;;;;;;1.08;0.90;;;;;;;23.12;55.44;101575.22;4997769;28;20044;-81
2023/07/20 09:32:53;;;;;;;2.20;1.00;;;;;;;21.93;53.78;101409.34;5015219;28;20026;-80
2023/07/20 09:35:33;;;;;;;1.83;1.10;;;;;;;22.19;54.42;101472.44;5015198;28;20025;-82
2023/07/20 09:38:00;;;;;;;2.38;1.00;;;;;;;21.83;52.81;101421.78;5015028;28;20061;-80
2023/07/20 09:40:59;;;;;;;2.95;1.10;;;;;;;21.97;53.55;101418.53;5015223;28;20034;-80
2023/07/20 09:43:34;;;;;;;1.20;0.88;;;;;;;22.12;53.61;101460.06;5014982;28;20109;-79
2023/07/20 09:45:59;;;;;;;2.08;1.17;;;;;;;22.64;53.97;101555.59;4997499;28;20029;-80
2023/07/20 09:48:28;;;;;;;2.70;0.90;;;;;;;22.91;54.78;101544.03;5015181;28;20032;-80
2023/07/20 09:50:55;;;;;;;1.92;1.02;;;;;;;23.11;52.84;101534.88;5015001;28;20439;-80
2023/07/20 09:53:25;;;;;;;3.30;1.05;;;;;;;23.62;54.01;101553.25;5014981;28;20417;-82
2023/07/20 09:55:51;;;;;;;1.47;0.97;;;;;;;23.64;50.79;101549.47;5015087;28;20390;-81
2023/07/20 09:58:17;;;;;;;2.88;0.80;;;;;;;23.78;53.73;101552.41;5014566;28;20545;-81
2023/07/20 10:00:46;;;;;;;2.50;0.98;;;;;;;23.41;51.29;101508.91;5014134;28;20033;-83
2023/07/20 10:03:16;;;;;;;1.10;0.82;;;;;;;23.76;52.79;101555.22;5015352;28;20034;-82
2023/07/20 10:05:58;;;;;;;1.10;0.90;;;;;;;23.81;52.34;101554.75;5014795;28;20054;-83
2023/07/20 10:08:29;;;;;;;3.00;1.05;;;;;;;23.69;52.53;101547.13;5014743;28;20108;-81
2023/07/20 10:10:57;;;;;;;2.58;1.15;;;;;;;23.93;48.57;101553.41;5014592;28;20057;-82
2023/07/20 10:13:27;;;;;;;2.10;0.80;;;;;;;24.13;51.72;101552.06;5014583;28;20112;-82
2023/07/20 10:16:06;;;;;;;2.80;1.00;;;;;;;24.21;52.38;101552.06;4996049;28;20030;-82
2023/07/20 10:18:41;;;;;;;3.15;0.90;;;;;;;24.01;52.35;101524.38;5014591;28;20033;-82
2023/07/20 10:21:08;;;;;;;2.70;1.13;;;;;;;24.01;51.84;101548.13;5014522;28;20030;-83
2023/07/20 10:37:01;;;;;;;2.27;1.00;;;;;;;23.36;54.26;101541.00;5012680;28;20112;-82
2023/07/20 10:39:47;;;;;;;1.63;0.95;;;;;;;22.34;53.16;101401.66;5029496;28;20114;-82
2023/07/20 10:42:12;;;;;;;4.00;0.90;;;;;;;22.45;54.16;101416.31;5014101;28;20436;-82
2023/07/20 10:44:39;;;;;;;1.60;1.10;;;;;;;22.73;52.27;101501.97;5013924;28;20034;-81
2023/07/20 10:47:12;;;;;;;2.00;0.90;;;;;;;22.74;54.02;101537.03;5013997;28;20072;-80
2023/07/20 10:49:58;;;;;;;1.58;0.95;;;;;;;22.87;52.77;101537.41;5014028;28;20041;-81
2023/07/20 10:52:23;;;;;;;2.30;0.98;;;;;;;22.87;54.34;101525.06;5014100;28;20049;-81
2023/07/20 10:54:49;;;;;;;1.42;1.08;;;;;;;23.04;55.58;101525.13;5014024;28;20156;-81
2023/07/20 10:57:30;;;;;;;2.13;0.73;;;;;;;22.98;53.16;101504.69;4996253;28;20030;-81
2023/07/20 11:00:19;;;;;;;2.25;1.00;;;;;;;23.11;53.54;101521.69;4995946;28;20036;-83
2023/07/20 11:02:46;;;;;;;1.25;0.88;;;;;;;22.82;50.63;101516.00;5013590;28;20022;-81
2023/07/20 11:05:35;;;;;;;4.07;1.10;;;;;;;22.78;51.92;101533.91;5013742;28;20052;-81
2023/07/20 11:20:05;;;;;;;1.63;0.85;;;;;;;21.23;53.31;101363.81;4980156;28;20027;-81
2023/07/20 11:22:38;;;;;;;1.83;0.90;;;;;;;22.35;52.69;101513.00;4993889;28;20065;-81
2023/07/20 11:25:39;;;;;;;1.58;0.90;;;;;;;21.64;52.97;101332.59;4993710;28;20437;-82
2023/07/20 11:28:11;;;;;;;2.58;0.75;;;;;;;22.61;51.28;101387.38;4993700;28;20022;-81
2023/07/20 11:30:40;;;;;;;2.28;0.90;;;;;;;23.73;50.07;101506.28;4993328;28;20026;-81
2023/07/20 11:33:14;;;;;;;1.40;0.90;;;;;;;23.60;48.17;101442.69;4993570;28;20450;-81
2023/07/20 11:35:44;;;;;;;1.95;1.00;;;;;;;24.08;48.45;101498.97;4976230;28;20447;-81
2023/07/20 11:38:23;;;;;;;1.83;1.20;;;;;;;23.97;49.00;101460.56;4993767;28;20022;-81
2023/07/20 11:41:13;;;;;;;1.48;1.00;;;;;;;24.19;49.19;101503.09;5011355;28;20110;-82
2023/07/20 11:43:40;;;;;;;2.78;1.00;;;;;;;23.15;49.33;101388.63;4995674;28;20030;-82
2023/07/20 11:46:34;;;;;;;2.97;1.05;;;;;;;23.71;50.25;101497.72;5012685;28;20084;-81
2023/07/20 11:52:37;;;;;;;2.65;0.90;;;;;;;22.52;49.65;101335.75;4974842;28;20097;-84
2023/07/20 11:55:42;;;;;;;1.67;0.93;;;;;;;23.39;49.48;101501.13;4974280;28;20026;-83
2023/07/20 11:59:01;;;;;;;1.58;0.77;;;;;;;23.36;49.90;101498.00;4973899;28;20030;-80
2023/07/20 12:01:35;;;;;;;1.88;0.90;;;;;;;23.27;49.29;101486.63;4973692;28;20035;-79
2023/07/20 12:04:02;;;;;;;1.27;0.70;;;;;;;23.53;47.99;101489.13;4973960;28;20034;-84
2023/07/20 12:06:35;;;;;;;3.63;1.08;;;;;;;23.60;48.44;101447.97;4973786;28;20059;-84
2023/07/20 12:09:00;;;;;;;2.40;0.70;;;;;;;24.18;48.00;101485.56;4975139;28;20141;-83
2023/07/20 12:27:20;;;;;;;8.07;1.05;;;;;;;24.44;43.17;101317.22;4914450;29;20144;-79
2023/07/20 12:29:47;;;;;;;7.72;1.10;;;;;;;24.71;43.42;101373.97;4913941;29;20064;-79
2023/07/20 12:32:32;;;;;;;7.70;1.15;;;;;;;25.37;43.40;101477.41;4913619;29;20091;-79
2023/07/20 12:35:11;;;;;;;3.85;0.90;;;;;;;24.41;44.47;101335.22;4898577;29;20099;-78
2023/07/20 12:38:01;;;;;;;1.67;0.85;;;;;;;25.29;43.55;101480.13;4914921;29;20094;-79
2023/07/20 12:41:03;;;;;;;3.42;1.33;;;;;;;25.08;43.08;101475.47;4917757;29;20092;-79
2023/07/20 12:43:29;;;;;;;5.07;1.20;;;;;;;24.09;42.70;101358.13;4870478;29;20138;-78
2023/07/20 12:45:55;;;;;;;1.65;0.77;;;;;;;24.75;43.20;101473.00;4933496;29;20120;-78
2023/07/20 12:48:21;;;;;;;1.83;0.90;;;;;;;24.68;43.46;101476.50;4917846;29;20044;-79
2023/07/20 12:50:46;;;;;;;8.38;1.20;;;;;;;24.46;44.51;101475.44;4917804;29;20039;-79
2023/07/20 12:53:27;;;;;;;;;;;;;;;;;;;;;
2023/07/20 12:55:53;;;;;;;;;;;;;;;24.46;44.65;101481.53;4962719;28;20364;-78
2023/07/20 12:58:18;;;;;;;2.15;0.90;;;;;;;23.96;45.82;101479.19;4996589;28;20012;-79
2023/07/20 13:00:43;;;;;;;3.83;1.02;;;;;;;23.74;46.26;101483.38;4996421;28;20103;-77
2023/07/20 13:03:09;;;;;;;1.10;0.75;;;;;;;23.40;46.56;101463.25;4979234;28;20030;-80
2023/07/20 13:05:37;;;;;;;4.78;1.02;;;;;;;23.04;47.72;101446.94;4978500;28;20074;-77
2023/07/20 13:13:35;;;;;;;2.83;1.27;;;;;;;22.26;48.05;101365.59;5200527;23;20053;-80
2023/07/20 13:16:06;;;;;;;2.55;1.13;;;;;;;22.22;49.45;101376.59;5034953;28;20037;-78
2023/07/20 13:21:22;;;;;;;3.00;1.10;;;;;;;22.49;48.76;101399.22;5035495;28;20008;-79
2023/07/20 13:24:08;;;;;;;3.72;0.90;;;;;;;22.84;48.61;101401.63;5035106;28;20049;-80
2023/07/20 13:26:34;;;;;;;1.90;1.20;;;;;;;23.32;48.48;101451.91;5035114;28;20029;-81
2023/07/20 13:29:24;;;;;;;1.63;0.90;;;;;;;22.95;48.33;101366.25;5035079;28;20099;-79
2023/07/20 13:31:53;;;;;;;3.75;1.10;;;;;;;23.42;49.32;101407.75;5012862;28;20066;-80
2023/07/20 13:34:18;;;;;;;3.83;1.40;;;;;;;23.13;45.70;101310.75;5013124;28;20109;-79
2023/07/20 13:36:44;;;;;;;2.95;1.20;;;;;;;24.08;45.68;101469.09;5012897;28;20124;-80
2023/07/20 13:39:11;;;;;;;2.75;1.17;;;;;;;23.61;45.34;101396.88;5013070;28;20033;-83
2023/07/20 13:41:37;;;;;;;3.38;1.20;;;;;;;23.88;47.27;101418.53;5012922;28;20049;-81
2023/07/20 13:44:20;;;;;;;;;;;;;;;;;;;;;
2023/07/20 13:47:35;;;;;;;2.63;1.10;;;;;;;24.09;45.69;101447.84;5012598;28;20120;-78
2023/07/20 13:50:00;;;;;;;2.72;1.08;;;;;;;23.12;46.74;101332.84;5011801;28;20045;-80
2023/07/20 13:52:47;;;;;;;2.78;1.17;;;;;;;23.61;47.30;101443.50;5012537;28;20508;-79
2023/07/20 13:55:12;;;;;;;1.90;1.17;;;;;;;22.52;46.78;101273.41;5012275;28;20068;-79
2023/07/20 13:57:37;;;;;;;6.75;1.48;;;;;;;23.59;46.02;101440.19;5012638;28;20081;-75
2023/07/20 14:00:03;;;;;;;3.42;1.45;;;;;;;23.65;46.68;101436.91;5012169;28;20124;-74
2023/07/20 14:02:29;;;;;;;2.78;1.30;;;;;;;23.83;45.33;101434.06;5019797;28;20053;-75
2023/07/20 14:04:55;;;;;;;1.60;1.30;;;;;;;23.86;47.74;101424.00;5034503;28;20029;-75
2023/07/20 14:07:21;;;;;;;3.50;1.50;;;;;;;23.77;49.29;101427.63;5000472;28;20385;-75
2023/07/20 14:09:46;;;;;;;3.47;1.60;;;;;;;23.53;49.63;101428.47;5034352;28;20022;-76
2023/07/20 14:12:13;;;;;;;2.38;1.40;;;;;;;23.19;50.22;101400.47;5034525;28;20695;-75
2023/07/20 14:14:40;;;;;;;3.22;1.60;;;;;;;23.05;47.36;101410.88;5034208;28;20045;-75
2023/07/20 14:17:06;;;;;;;3.78;1.50;;;;;;;22.94;49.94;101419.91;5034062;28;20444;-77
2023/07/20 14:19:31;;;;;;;2.90;1.27;;;;;;;22.56;49.83;101397.59;5015579;28;20037;-78
2023/07/20 14:21:58;;;;;;;2.42;1.40;;;;;;;22.26;49.50;101375.31;5033902;28;20095;-76
2023/07/20 14:24:24;;;;;;;2.20;1.20;;;;;;;22.61;50.08;101405.81;5034243;28;20449;-77
2023/07/20 14:26:49;;;;;;;2.63;1.33;;;;;;;22.74;51.13;101394.84;5016292;28;20120;-76
2023/07/20 14:29:14;;;;;;;2.25;1.40;;;;;;;22.80;46.92;101407.34;5034114;28;20108;-76
2023/07/20 14:31:40;;;;;;;2.67;1.20;;;;;;;22.82;48.61;101403.59;5034106;28;20363;-77
2023/07/20 14:34:05;;;;;;;3.58;1.10;;;;;;;22.85;47.20;101395.38;5033509;28;20036;-79
2023/07/20 14:36:30;;;;;;;2.55;1.27;;;;;;;22.87;47.86;101382.03;5015649;28;20041;-79
2023/07/20 14:38:56;;;;;;;3.08;1.40;;;;;;;23.00;47.73;101392.91;5033974;28;20021;-77
2023/07/20 14:41:21;;;;;;;1.20;0.98;;;;;;;23.16;46.79;101390.28;5015712;28;20149;-79
2023/07/20 14:43:46;;;;;;;1.67;1.10;;;;;;;23.12;46.46;101394.25;5034020;28;20033;-78
2023/07/20 14:46:12;;;;;;;1.65;1.00;;;;;;;23.10;47.00;101393.56;5033743;28;20021;-79
2023/07/20 14:48:37;;;;;;;2.90;1.58;;;;;;;22.96;47.77;101386.34;5033399;28;20466;-76
2023/07/20 14:51:02;;;;;;;1.95;1.15;;;;;;;22.95;47.25;101392.59;5033731;28;20461;-79
2023/07/20 14:53:31;;;;;;;1.88;1.23;;;;;;;23.02;45.73;101385.69;5033632;28;20026;-76
2023/07/20 14:56:00;;;;;;;2.95;1.33;;;;;;;23.39;45.60;101397.50;5033622;28;20057;-76
2023/07/20 14:58:26;;;;;;;4.72;1.38;;;;;;;23.37;46.66;101388.94;5033568;28;20030;-78
2023/07/20 15:00:51;;;;;;;1.73;1.23;;;;;;;23.36;47.84;101387.31;5032827;28;20032;-76
2023/07/20 15:03:16;;;;;;;2.25;1.25;;;;;;;23.36;48.38;101376.75;5033291;28;20025;-75
2023/07/20 15:05:42;;;;;;;2.55;1.58;;;;;;;23.55;48.02;101386.13;5033595;28;20017;-77
2023/07/20 15:08:08;;;;;;;2.05;1.25;;;;;;;23.69;46.29;101388.09;5033342;28;20032;-77
2023/07/20 15:10:34;;;;;;;1.65;1.20;;;;;;;23.92;46.95;101383.75;5033405;28;20057;-76
2023/07/20 15:13:00;;;;;;;1.70;1.30;;;;;;;23.80;45.84;101384.31;5033175;28;20072;-75
2023/07/20 15:15:25;;;;;;;1.45;0.98;;;;;;;23.81;46.76;101393.84;5033231;28;20025;-76